createdAt,value
2018-11-22T12:16:34.366Z,2.22
2018-11-22T12:19:04.363Z,2.22
2018-11-22T12:21:33.708Z,2.26
2018-11-22T12:24:02.942Z,2.25
2018-11-22T12:26:31.941Z,2.24
2018-11-22T12:29:01.490Z,2.24
2018-11-22T12:32:06.406Z,2.16
2018-11-22T12:34:40.660Z,2.23
2018-11-22T12:37:15.026Z,2.21
2018-11-22T12:39:44.061Z,2.19
2018-11-22T12:42:13.137Z,2.18
2018-11-22T12:44:42.959Z,2.23
2018-11-22T12:47:12.178Z,2.21
2018-11-22T12:49:41.962Z,2.23
2018-11-22T12:52:11.250Z,2.27
2018-11-22T12:54:40.120Z,2.27
2018-11-22T12:57:09.273Z,2.25
2018-11-22T12:59:38.345Z,2.29
2018-11-22T13:02:07.421Z,2.22
2018-11-22T13:04:36.508Z,2.28
2018-11-22T13:07:05.794Z,2.22
2018-11-22T13:09:34.730Z,2.28
2018-11-22T13:12:03.721Z,2.31
2018-11-22T13:14:32.416Z,2.27
2018-11-22T13:17:01.389Z,2.31
2018-11-22T13:19:30.039Z,2.29
2018-11-22T13:21:59.311Z,2.31
2018-11-22T13:24:29.605Z,2.32
2018-11-22T13:26:59.528Z,2.36
2018-11-22T13:29:28.772Z,2.35
2018-11-22T13:31:59.050Z,2.36
2018-11-22T13:34:28.088Z,2.39
2018-11-22T13:40:44.322Z,2.41
2018-11-22T13:43:13.462Z,2.41
2018-11-22T13:45:42.968Z,2.41
2018-11-22T13:48:13.234Z,2.41
2018-11-22T13:50:42.527Z,2.37
2018-11-22T13:53:11.694Z,2.40
2018-11-22T13:55:40.581Z,2.41
2018-11-22T13:58:09.566Z,2.47
2018-11-22T14:00:38.665Z,2.43
2018-11-22T14:03:07.963Z,2.44
2018-11-22T14:05:37.188Z,2.43
2018-11-22T14:08:07.083Z,2.42
2018-11-22T14:10:36.156Z,2.45
2018-11-22T14:13:05.546Z,2.41
2018-11-22T14:15:34.769Z,2.40
2018-11-22T14:18:05.158Z,2.43
2018-11-22T14:20:35.592Z,2.44
2018-11-22T14:23:04.884Z,2.39
2018-11-22T14:25:33.931Z,2.39
2018-11-22T14:28:03.433Z,2.37
2018-11-22T17:43:22.300Z,2.36
2018-11-22T17:45:52.932Z,2.32
2018-11-22T17:48:22.288Z,2.32
2018-11-22T17:50:53.118Z,2.31
2018-11-22T17:53:21.580Z,2.32
2018-11-22T17:55:50.198Z,2.30
2018-11-22T17:58:19.966Z,2.29
2018-11-22T18:00:55.351Z,2.31
2018-11-22T18:03:25.495Z,2.34
2018-11-22T18:06:10.495Z,2.33
2018-11-22T18:08:39.117Z,2.32
2018-11-22T18:11:08.108Z,2.37
2018-11-22T18:13:37.486Z,2.37
2018-11-22T18:16:06.512Z,2.36
2018-11-22T18:18:35.481Z,2.36
2018-11-22T18:21:05.830Z,2.38
2018-11-22T18:23:34.955Z,2.39
2018-11-22T18:26:03.699Z,2.34
2018-11-22T18:28:32.444Z,2.37
2018-11-22T18:31:01.132Z,2.35
2018-11-22T18:33:30.430Z,2.38
2018-11-22T18:36:00.347Z,2.39
2018-11-22T18:38:29.223Z,2.41
2018-11-22T18:40:58.206Z,2.48
2018-11-22T18:43:26.742Z,2.48
2018-11-22T18:45:55.891Z,2.43
2018-11-22T18:48:24.607Z,2.44
2018-11-22T18:50:53.219Z,2.48
2018-11-22T18:53:22.354Z,2.45
2018-11-22T18:55:52.148Z,2.49
2018-11-22T18:58:20.783Z,2.45
2018-11-22T19:00:50.033Z,2.45
2018-11-22T19:03:22.032Z,2.49
2018-11-22T19:05:54.203Z,2.51
2018-11-22T19:08:23.978Z,2.47
2018-11-22T19:10:52.883Z,2.48
2018-11-22T19:13:21.374Z,2.45
2018-11-22T19:15:52.919Z,2.50
2018-11-22T19:18:21.959Z,2.48
2018-11-22T19:20:51.923Z,2.53
2018-11-22T19:23:21.514Z,2.48
2018-11-22T19:25:51.556Z,2.44
2018-11-22T19:28:20.091Z,2.50
2018-11-22T19:30:49.680Z,2.48
2018-11-22T19:33:21.785Z,2.48
2018-11-22T19:35:57.591Z,2.49
2018-11-22T19:38:33.959Z,2.48
2018-11-22T19:41:02.618Z,2.47
2018-11-22T19:43:32.007Z,2.50
2018-11-22T19:46:02.438Z,2.45
2018-11-22T19:48:32.766Z,2.50
2018-11-22T19:51:05.580Z,2.52
2018-11-22T19:53:29.794Z,2.45
2018-11-22T19:56:00.604Z,2.43
2018-11-22T19:58:30.360Z,2.48
2018-11-22T20:00:59.369Z,2.43
2018-11-22T20:03:28.746Z,2.45
2018-11-22T20:05:59.549Z,2.49
2018-11-22T20:08:29.160Z,2.49
2018-11-22T20:10:59.463Z,2.48
2018-11-22T20:13:46.103Z,2.44
2018-11-22T20:16:15.578Z,2.45
2018-11-22T20:18:44.236Z,2.48
2018-11-22T20:21:13.054Z,2.41
2018-11-22T20:23:41.666Z,2.36
2018-11-22T20:26:10.071Z,2.39
2018-11-22T20:28:38.992Z,2.39
2018-11-22T20:31:08.280Z,2.40
2018-11-22T20:33:36.891Z,2.40
2018-11-22T20:36:06.516Z,2.38
2018-11-22T20:38:35.403Z,2.39
2018-11-22T20:41:03.909Z,2.39
2018-11-22T20:43:32.421Z,2.38
2018-11-22T20:46:01.050Z,2.40
2018-11-22T20:48:29.550Z,2.39
2018-11-22T20:50:58.078Z,2.37
2018-11-22T20:53:26.711Z,2.36
2018-11-22T20:55:56.115Z,2.35
2018-11-22T20:58:24.780Z,2.33
2018-11-22T21:00:53.235Z,2.36
2018-11-22T21:03:21.802Z,2.35
2018-11-22T21:05:53.786Z,2.39
2018-11-22T21:08:23.027Z,2.40
2018-11-22T21:10:53.553Z,2.43
2018-11-22T21:13:22.707Z,2.44
2018-11-22T21:15:51.231Z,2.41
2018-11-22T21:18:19.660Z,2.44
2018-11-22T21:20:48.075Z,2.45
2018-11-22T21:23:16.991Z,2.43
2018-11-22T21:25:45.585Z,2.43
2018-11-22T21:28:14.048Z,2.43
2018-11-22T21:30:49.265Z,2.42
2018-11-22T21:33:19.268Z,2.45
2018-11-22T21:35:48.189Z,2.45
2018-11-22T21:38:16.940Z,2.41
2018-11-22T21:40:58.654Z,2.39
2018-11-22T21:43:41.171Z,2.42
2018-11-22T21:46:09.767Z,2.33
2018-11-22T21:48:38.817Z,2.37
2018-11-22T21:51:07.937Z,2.35
2018-11-22T21:53:36.869Z,2.36
2018-11-22T21:56:06.255Z,2.36
2018-11-22T21:58:35.263Z,2.39
2018-11-22T22:01:04.320Z,2.37
2018-11-22T22:03:33.318Z,2.35
2018-11-22T22:06:01.919Z,2.38
2018-11-22T22:08:31.397Z,2.39
2018-11-22T22:11:01.529Z,2.41
2018-11-22T22:13:30.884Z,2.43
2018-11-22T22:16:00.141Z,2.35
2018-11-22T22:18:29.391Z,2.35
2018-11-22T22:20:58.553Z,2.30
2018-11-22T22:23:27.127Z,2.30
2018-11-22T22:25:56.187Z,2.31
2018-11-22T22:28:27.729Z,2.34
2018-11-22T22:31:11.721Z,2.31
2018-11-22T22:33:41.670Z,2.33
2018-11-22T22:36:11.501Z,2.29
2018-11-22T22:38:41.745Z,2.30
2018-11-22T22:41:10.262Z,2.31
2018-11-22T22:43:39.086Z,2.34
2018-11-22T22:46:09.853Z,2.30
2018-11-22T22:48:39.821Z,2.31
2018-11-22T22:51:08.888Z,2.34
2018-11-22T22:53:38.493Z,2.32
2018-11-22T22:56:07.672Z,2.34
2018-11-22T22:58:37.295Z,2.29
2018-11-22T23:01:06.250Z,2.29
2018-11-22T23:03:34.793Z,2.30
2018-11-22T23:06:05.001Z,2.28
2018-11-22T23:08:33.460Z,2.29
2018-11-22T23:11:02.049Z,2.31
2018-11-22T23:13:30.730Z,2.25
2018-11-22T23:15:59.826Z,2.24
2018-11-22T23:18:28.730Z,2.23
2018-11-22T23:20:57.582Z,2.26
2018-11-22T23:23:26.543Z,2.27
2018-11-22T23:25:55.692Z,2.20
2018-11-22T23:28:24.638Z,2.23
2018-11-22T23:30:53.758Z,2.16
2018-11-22T23:33:22.312Z,2.15
2018-11-22T23:35:51.151Z,2.20
2018-11-22T23:38:19.655Z,2.14
2018-11-22T23:40:48.930Z,2.16
2018-11-22T23:43:18.108Z,2.19
2018-11-22T23:45:48.628Z,2.23
2018-11-22T23:48:19.807Z,2.21
2018-11-22T23:50:49.344Z,2.24
2018-11-22T23:53:18.348Z,2.22
2018-11-22T23:55:47.315Z,2.23
2018-11-22T23:58:16.774Z,2.25
